Terminal Aerodrome Forecast
Issued by NWS Bismarck, ND

Home | Current Version | Previous Version | Graphics & Text | Print | Product List | Glossary On
Versions: 1 2 3 4 5 6 7 8 9 10 11 12 13 14 15 16 17 18 19 20 21 22 23
223
FTUS43 KBIS 210632 AAB
TAFISN
TAF AMD
KISN 210632Z 2107/2206 33012G17KT P6SM -SHSN BKN025
      TEMPO 2107/2110 SCT025
     FM211000 32013KT P6SM SCT025
     FM211700 29008KT P6SM SCT250
     FM212200 24006KT P6SM SCT250
     FM212300 18005KT P6SM FEW250=

USA.gov is the U.S. government's official web portal to all federal, state and local government web resources and services.